sensor_id;sensor_type;location;lat;lon;timestamp;temperature;humidity
7234;DHT22;3658;47.992;10.158;2023-04-15T00:02:16;20.90;36.90
7234;DHT22;3658;47.992;10.158;2023-04-15T00:04:44;20.90;36.90
7234;DHT22;3658;47.992;10.158;2023-04-15T00:07:11;20.90;36.90
7234;DHT22;3658;47.992;10.158;2023-04-15T00:09:40;20.90;36.80
7234;DHT22;3658;47.992;10.158;2023-04-15T00:12:07;20.90;36.80
7234;DHT22;3658;47.992;10.158;2023-04-15T00:14:34;20.90;36.80
7234;DHT22;3658;47.992;10.158;2023-04-15T00:17:02;20.90;36.80
7234;DHT22;3658;47.992;10.158;2023-04-15T00:19:30;20.90;36.70
7234;DHT22;3658;47.992;10.158;2023-04-15T00:21:57;20.90;36.70
7234;DHT22;3658;47.992;10.158;2023-04-15T00:24:24;20.90;36.70
7234;DHT22;3658;47.992;10.158;2023-04-15T00:26:52;20.90;36.80
7234;DHT22;3658;47.992;10.158;2023-04-15T00:29:19;20.90;36.70
7234;DHT22;3658;47.992;10.158;2023-04-15T00:31:46;20.90;36.70
7234;DHT22;3658;47.992;10.158;2023-04-15T00:34:13;20.90;36.60
7234;DHT22;3658;47.992;10.158;2023-04-15T00:36:40;20.90;36.50
7234;DHT22;3658;47.992;10.158;2023-04-15T00:39:07;20.90;36.50
7234;DHT22;3658;47.992;10.158;2023-04-15T00:41:34;20.90;36.50
7234;DHT22;3658;47.992;10.158;2023-04-15T00:44:05;20.90;36.50
7234;DHT22;3658;47.992;10.158;2023-04-15T00:46:34;20.90;36.40
7234;DHT22;3658;47.992;10.158;2023-04-15T00:49:03;20.90;36.40
7234;DHT22;3658;47.992;10.158;2023-04-15T00:51:30;20.90;37.00
7234;DHT22;3658;47.992;10.158;2023-04-15T00:54:00;20.90;36.40
7234;DHT22;3658;47.992;10.158;2023-04-15T00:56:28;20.90;36.40
7234;DHT22;3658;47.992;10.158;2023-04-15T00:58:56;20.90;36.40
7234;DHT22;3658;47.992;10.158;2023-04-15T01:01:25;20.90;36.40
7234;DHT22;3658;47.992;10.158;2023-04-15T01:03:52;20.90;36.40
7234;DHT22;3658;47.992;10.158;2023-04-15T01:06:19;20.90;36.40
7234;DHT22;3658;47.992;10.158;2023-04-15T01:08:46;20.90;36.40
7234;DHT22;3658;47.992;10.158;2023-04-15T01:11:14;20.90;36.40
7234;DHT22;3658;47.992;10.158;2023-04-15T01:13:41;20.80;36.40
7234;DHT22;3658;47.992;10.158;2023-04-15T01:16:08;20.90;36.40
7234;DHT22;3658;47.992;10.158;2023-04-15T01:18:37;20.90;36.40
7234;DHT22;3658;47.992;10.158;2023-04-15T01:21:05;20.90;36.40
7234;DHT22;3658;47.992;10.158;2023-04-15T01:23:35;20.90;36.40
7234;DHT22;3658;47.992;10.158;2023-04-15T01:26:05;20.90;36.40
7234;DHT22;3658;47.992;10.158;2023-04-15T01:28:33;20.90;36.30
7234;DHT22;3658;47.992;10.158;2023-04-15T01:31:07;20.90;36.40
7234;DHT22;3658;47.992;10.158;2023-04-15T01:33:35;20.90;36.30
7234;DHT22;3658;47.992;10.158;2023-04-15T01:36:03;20.90;36.30
7234;DHT22;3658;47.992;10.158;2023-04-15T01:38:30;20.90;36.30
7234;DHT22;3658;47.992;10.158;2023-04-15T01:40:57;20.90;36.30
7234;DHT22;3658;47.992;10.158;2023-04-15T01:43:26;20.90;36.30
7234;DHT22;3658;47.992;10.158;2023-04-15T01:45:53;20.90;36.30
7234;DHT22;3658;47.992;10.158;2023-04-15T01:48:21;20.90;36.30
7234;DHT22;3658;47.992;10.158;2023-04-15T01:50:48;20.90;36.20
7234;DHT22;3658;47.992;10.158;2023-04-15T01:53:15;20.90;36.20
7234;DHT22;3658;47.992;10.158;2023-04-15T01:55:41;20.90;36.80
7234;DHT22;3658;47.992;10.158;2023-04-15T01:58:08;20.90;36.20
7234;DHT22;3658;47.992;10.158;2023-04-15T02:00:37;20.90;36.20
7234;DHT22;3658;47.992;10.158;2023-04-15T02:03:04;20.90;36.10
7234;DHT22;3658;47.992;10.158;2023-04-15T02:05:31;20.90;36.10
7234;DHT22;3658;47.992;10.158;2023-04-15T02:07:58;20.90;36.10
7234;DHT22;3658;47.992;10.158;2023-04-15T02:10:25;20.90;36.00
7234;DHT22;3658;47.992;10.158;2023-04-15T02:12:52;20.80;35.90
7234;DHT22;3658;47.992;10.158;2023-04-15T02:15:19;20.80;35.90
7234;DHT22;3658;47.992;10.158;2023-04-15T02:17:47;20.80;35.90
7234;DHT22;3658;47.992;10.158;2023-04-15T02:20:15;20.80;35.90
7234;DHT22;3658;47.992;10.158;2023-04-15T02:22:42;20.80;35.90
7234;DHT22;3658;47.992;10.158;2023-04-15T02:25:09;20.80;35.90
7234;DHT22;3658;47.992;10.158;2023-04-15T02:27:36;20.80;36.00
7234;DHT22;3658;47.992;10.158;2023-04-15T02:30:04;20.80;35.90
7234;DHT22;3658;47.992;10.158;2023-04-15T02:32:31;20.80;36.10
7234;DHT22;3658;47.992;10.158;2023-04-15T02:35:03;20.80;36.00
7234;DHT22;3658;47.992;10.158;2023-04-15T02:37:31;20.80;36.00
7234;DHT22;3658;47.992;10.158;2023-04-15T02:40:01;20.80;36.00
7234;DHT22;3658;47.992;10.158;2023-04-15T02:42:29;20.80;36.00
7234;DHT22;3658;47.992;10.158;2023-04-15T02:44:56;20.80;36.00
7234;DHT22;3658;47.992;10.158;2023-04-15T02:47:24;20.80;36.00
7234;DHT22;3658;47.992;10.158;2023-04-15T02:49:51;20.80;36.00
7234;DHT22;3658;47.992;10.158;2023-04-15T02:52:19;20.80;35.90
7234;DHT22;3658;47.992;10.158;2023-04-15T02:54:46;20.90;36.00
7234;DHT22;3658;47.992;10.158;2023-04-15T02:57:13;20.80;35.90
7234;DHT22;3658;47.992;10.158;2023-04-15T02:59:40;20.90;36.00
7234;DHT22;3658;47.992;10.158;2023-04-15T03:02:07;20.90;35.90
7234;DHT22;3658;47.992;10.158;2023-04-15T03:04:34;20.90;35.90
7234;DHT22;3658;47.992;10.158;2023-04-15T03:07:01;20.90;35.90
7234;DHT22;3658;47.992;10.158;2023-04-15T03:09:29;20.80;35.80
7234;DHT22;3658;47.992;10.158;2023-04-15T03:11:56;20.90;35.90
7234;DHT22;3658;47.992;10.158;2023-04-15T03:14:23;20.80;35.80
7234;DHT22;3658;47.992;10.158;2023-04-15T03:16:50;20.90;35.90
7234;DHT22;3658;47.992;10.158;2023-04-15T03:19:17;20.80;35.80
7234;DHT22;3658;47.992;10.158;2023-04-15T03:21:44;20.80;35.80
7234;DHT22;3658;47.992;10.158;2023-04-15T03:24:11;20.80;35.70
7234;DHT22;3658;47.992;10.158;2023-04-15T03:26:39;20.80;35.70
7234;DHT22;3658;47.992;10.158;2023-04-15T03:29:06;20.80;35.70
7234;DHT22;3658;47.992;10.158;2023-04-15T03:31:33;20.80;35.70
7234;DHT22;3658;47.992;10.158;2023-04-15T03:34:00;20.80;35.70
7234;DHT22;3658;47.992;10.158;2023-04-15T03:36:28;20.80;35.70
7234;DHT22;3658;47.992;10.158;2023-04-15T03:38:55;20.80;35.70
7234;DHT22;3658;47.992;10.158;2023-04-15T03:41:23;20.80;35.70
7234;DHT22;3658;47.992;10.158;2023-04-15T03:43:51;20.80;35.70
7234;DHT22;3658;47.992;10.158;2023-04-15T03:46:18;20.80;35.70
7234;DHT22;3658;47.992;10.158;2023-04-15T03:48:45;20.80;35.70
7234;DHT22;3658;47.992;10.158;2023-04-15T03:51:13;20.80;35.70
7234;DHT22;3658;47.992;10.158;2023-04-15T03:53:40;20.80;35.70
7234;DHT22;3658;47.992;10.158;2023-04-15T03:56:07;20.80;35.70
7234;DHT22;3658;47.992;10.158;2023-04-15T03:58:34;20.80;35.70
7234;DHT22;3658;47.992;10.158;2023-04-15T04:01:02;20.80;35.80
7234;DHT22;3658;47.992;10.158;2023-04-15T04:03:29;20.80;35.70
7234;DHT22;3658;47.992;10.158;2023-04-15T04:05:56;20.80;35.70
7234;DHT22;3658;47.992;10.158;2023-04-15T04:08:23;20.80;35.70
7234;DHT22;3658;47.992;10.158;2023-04-15T04:10:52;20.80;35.70
7234;DHT22;3658;47.992;10.158;2023-04-15T04:13:19;20.80;35.70
7234;DHT22;3658;47.992;10.158;2023-04-15T04:15:45;20.80;35.70
7234;DHT22;3658;47.992;10.158;2023-04-15T04:18:14;20.80;35.70
7234;DHT22;3658;47.992;10.158;2023-04-15T04:20:41;20.80;35.70
7234;DHT22;3658;47.992;10.158;2023-04-15T04:23:08;20.80;35.60
7234;DHT22;3658;47.992;10.158;2023-04-15T04:25:35;20.80;35.60
7234;DHT22;3658;47.992;10.158;2023-04-15T04:28:02;20.80;35.50
7234;DHT22;3658;47.992;10.158;2023-04-15T04:30:29;20.80;36.20
7234;DHT22;3658;47.992;10.158;2023-04-15T04:32:56;20.80;35.50
7234;DHT22;3658;47.992;10.158;2023-04-15T04:35:25;20.80;35.50
7234;DHT22;3658;47.992;10.158;2023-04-15T04:37:52;20.80;35.50
7234;DHT22;3658;47.992;10.158;2023-04-15T04:40:19;20.80;35.50
7234;DHT22;3658;47.992;10.158;2023-04-15T04:42:46;20.80;35.40
7234;DHT22;3658;47.992;10.158;2023-04-15T04:45:13;20.80;35.40
7234;DHT22;3658;47.992;10.158;2023-04-15T04:47:40;20.80;35.50
7234;DHT22;3658;47.992;10.158;2023-04-15T04:50:08;20.80;35.50
7234;DHT22;3658;47.992;10.158;2023-04-15T04:52:37;20.80;35.40
7234;DHT22;3658;47.992;10.158;2023-04-15T04:55:04;20.80;35.40
7234;DHT22;3658;47.992;10.158;2023-04-15T04:57:33;20.80;35.50
7234;DHT22;3658;47.992;10.158;2023-04-15T05:00:00;20.70;35.40
7234;DHT22;3658;47.992;10.158;2023-04-15T05:02:27;20.70;35.40
7234;DHT22;3658;47.992;10.158;2023-04-15T05:04:54;20.70;35.40
7234;DHT22;3658;47.992;10.158;2023-04-15T05:07:21;20.70;35.40
7234;DHT22;3658;47.992;10.158;2023-04-15T05:09:49;20.80;35.40
7234;DHT22;3658;47.992;10.158;2023-04-15T05:12:16;20.80;35.70
7234;DHT22;3658;47.992;10.158;2023-04-15T05:14:43;20.80;36.00
7234;DHT22;3658;47.992;10.158;2023-04-15T05:17:11;20.80;36.10
7234;DHT22;3658;47.992;10.158;2023-04-15T05:19:38;20.80;36.30
7234;DHT22;3658;47.992;10.158;2023-04-15T05:22:05;20.80;36.30
7234;DHT22;3658;47.992;10.158;2023-04-15T05:24:33;20.80;36.40
7234;DHT22;3658;47.992;10.158;2023-04-15T05:27:01;20.90;36.50
7234;DHT22;3658;47.992;10.158;2023-04-15T05:29:28;20.90;36.60
7234;DHT22;3658;47.992;10.158;2023-04-15T05:31:55;20.90;36.70
7234;DHT22;3658;47.992;10.158;2023-04-15T05:34:22;20.90;36.80
7234;DHT22;3658;47.992;10.158;2023-04-15T05:36:49;20.90;36.90
7234;DHT22;3658;47.992;10.158;2023-04-15T05:39:17;20.90;36.90
7234;DHT22;3658;47.992;10.158;2023-04-15T05:41:44;20.80;36.80
7234;DHT22;3658;47.992;10.158;2023-04-15T05:44:12;20.80;36.70
7234;DHT22;3658;47.992;10.158;2023-04-15T05:46:39;20.80;36.70
7234;DHT22;3658;47.992;10.158;2023-04-15T05:49:06;20.80;36.80
7234;DHT22;3658;47.992;10.158;2023-04-15T05:51:33;20.80;36.70
7234;DHT22;3658;47.992;10.158;2023-04-15T05:54:00;20.80;36.90
7234;DHT22;3658;47.992;10.158;2023-04-15T05:56:27;20.80;36.80
7234;DHT22;3658;47.992;10.158;2023-04-15T05:58:54;20.80;36.80
7234;DHT22;3658;47.992;10.158;2023-04-15T06:01:22;20.80;36.80
7234;DHT22;3658;47.992;10.158;2023-04-15T06:03:50;20.80;36.90
7234;DHT22;3658;47.992;10.158;2023-04-15T06:06:16;20.70;36.80
7234;DHT22;3658;47.992;10.158;2023-04-15T06:08:43;20.70;36.90
7234;DHT22;3658;47.992;10.158;2023-04-15T06:11:10;20.80;37.00
7234;DHT22;3658;47.992;10.158;2023-04-15T06:13:37;20.80;36.90
7234;DHT22;3658;47.992;10.158;2023-04-15T06:16:05;20.80;37.00
7234;DHT22;3658;47.992;10.158;2023-04-15T06:18:33;20.80;37.00
7234;DHT22;3658;47.992;10.158;2023-04-15T06:21:00;20.80;37.00
7234;DHT22;3658;47.992;10.158;2023-04-15T06:23:28;20.80;37.00
7234;DHT22;3658;47.992;10.158;2023-04-15T06:25:55;20.80;37.20
7234;DHT22;3658;47.992;10.158;2023-04-15T06:28:22;20.80;37.10
7234;DHT22;3658;47.992;10.158;2023-04-15T06:30:49;20.80;37.20
7234;DHT22;3658;47.992;10.158;2023-04-15T06:33:16;20.80;37.20
7234;DHT22;3658;47.992;10.158;2023-04-15T06:35:44;20.80;37.40
7234;DHT22;3658;47.992;10.158;2023-04-15T06:38:12;20.90;37.50
7234;DHT22;3658;47.992;10.158;2023-04-15T06:40:39;20.80;37.40
7234;DHT22;3658;47.992;10.158;2023-04-15T06:43:07;20.80;37.40
7234;DHT22;3658;47.992;10.158;2023-04-15T06:45:34;20.80;37.40
7234;DHT22;3658;47.992;10.158;2023-04-15T06:48:01;20.80;37.50
7234;DHT22;3658;47.992;10.158;2023-04-15T06:50:28;20.80;37.50
7234;DHT22;3658;47.992;10.158;2023-04-15T06:52:56;20.80;37.50
7234;DHT22;3658;47.992;10.158;2023-04-15T06:55:23;20.80;37.50
7234;DHT22;3658;47.992;10.158;2023-04-15T06:57:50;20.80;38.10
7234;DHT22;3658;47.992;10.158;2023-04-15T07:00:17;20.90;38.30
7234;DHT22;3658;47.992;10.158;2023-04-15T07:02:44;20.90;38.10
7234;DHT22;3658;47.992;10.158;2023-04-15T07:05:12;20.90;37.90
7234;DHT22;3658;47.992;10.158;2023-04-15T07:07:39;20.90;38.00
7234;DHT22;3658;47.992;10.158;2023-04-15T07:10:08;20.90;38.20
7234;DHT22;3658;47.992;10.158;2023-04-15T07:12:36;20.90;38.30
7234;DHT22;3658;47.992;10.158;2023-04-15T07:15:04;20.90;38.30
7234;DHT22;3658;47.992;10.158;2023-04-15T07:17:31;20.90;38.10
7234;DHT22;3658;47.992;10.158;2023-04-15T07:19:58;20.90;38.00
7234;DHT22;3658;47.992;10.158;2023-04-15T07:22:26;20.90;38.00
7234;DHT22;3658;47.992;10.158;2023-04-15T07:24:53;20.80;37.80
7234;DHT22;3658;47.992;10.158;2023-04-15T07:27:21;20.80;37.80
7234;DHT22;3658;47.992;10.158;2023-04-15T07:29:48;20.80;37.70
7234;DHT22;3658;47.992;10.158;2023-04-15T07:32:16;20.80;37.80
7234;DHT22;3658;47.992;10.158;2023-04-15T07:34:43;20.80;37.80
7234;DHT22;3658;47.992;10.158;2023-04-15T07:37:11;20.80;37.80
7234;DHT22;3658;47.992;10.158;2023-04-15T07:39:38;20.80;37.80
7234;DHT22;3658;47.992;10.158;2023-04-15T07:42:05;20.80;37.90
7234;DHT22;3658;47.992;10.158;2023-04-15T07:44:33;20.80;37.90
7234;DHT22;3658;47.992;10.158;2023-04-15T07:47:01;20.80;38.00
7234;DHT22;3658;47.992;10.158;2023-04-15T07:49:28;20.80;38.30
7234;DHT22;3658;47.992;10.158;2023-04-15T07:51:56;20.80;38.30
7234;DHT22;3658;47.992;10.158;2023-04-15T07:54:24;20.80;38.30
7234;DHT22;3658;47.992;10.158;2023-04-15T07:56:53;20.80;38.20
7234;DHT22;3658;47.992;10.158;2023-04-15T07:59:20;20.90;38.20
7234;DHT22;3658;47.992;10.158;2023-04-15T08:01:49;20.90;38.20
7234;DHT22;3658;47.992;10.158;2023-04-15T08:04:16;20.90;38.20
7234;DHT22;3658;47.992;10.158;2023-04-15T08:06:43;20.90;38.00
7234;DHT22;3658;47.992;10.158;2023-04-15T08:09:10;20.90;38.00
7234;DHT22;3658;47.992;10.158;2023-04-15T08:11:37;20.90;38.00
7234;DHT22;3658;47.992;10.158;2023-04-15T08:14:04;20.90;38.00
7234;DHT22;3658;47.992;10.158;2023-04-15T08:16:31;20.90;38.00
7234;DHT22;3658;47.992;10.158;2023-04-15T08:18:59;20.90;37.90
7234;DHT22;3658;47.992;10.158;2023-04-15T08:21:26;20.90;37.90
7234;DHT22;3658;47.992;10.158;2023-04-15T08:23:55;20.90;37.90
7234;DHT22;3658;47.992;10.158;2023-04-15T08:26:22;20.90;37.80
7234;DHT22;3658;47.992;10.158;2023-04-15T08:28:49;20.90;37.70
7234;DHT22;3658;47.992;10.158;2023-04-15T08:31:17;20.90;37.70
7234;DHT22;3658;47.992;10.158;2023-04-15T08:33:44;20.90;37.70
7234;DHT22;3658;47.992;10.158;2023-04-15T08:36:13;20.90;37.70
7234;DHT22;3658;47.992;10.158;2023-04-15T08:38:40;20.90;37.70
7234;DHT22;3658;47.992;10.158;2023-04-15T08:41:11;20.90;37.60
7234;DHT22;3658;47.992;10.158;2023-04-15T08:43:48;20.90;37.60
7234;DHT22;3658;47.992;10.158;2023-04-15T08:46:17;20.90;37.60
7234;DHT22;3658;47.992;10.158;2023-04-15T08:48:46;20.90;37.60
7234;DHT22;3658;47.992;10.158;2023-04-15T08:51:15;20.90;37.50
7234;DHT22;3658;47.992;10.158;2023-04-15T08:53:43;20.90;37.50
7234;DHT22;3658;47.992;10.158;2023-04-15T08:56:12;20.90;37.50
7234;DHT22;3658;47.992;10.158;2023-04-15T08:58:40;20.90;37.50
7234;DHT22;3658;47.992;10.158;2023-04-15T09:01:07;20.90;37.50
7234;DHT22;3658;47.992;10.158;2023-04-15T09:03:34;20.90;37.50
7234;DHT22;3658;47.992;10.158;2023-04-15T09:06:03;21.00;37.50
7234;DHT22;3658;47.992;10.158;2023-04-15T09:08:32;21.00;37.50
7234;DHT22;3658;47.992;10.158;2023-04-15T09:11:00;21.00;37.50
7234;DHT22;3658;47.992;10.158;2023-04-15T09:13:27;20.90;37.40
7234;DHT22;3658;47.992;10.158;2023-04-15T09:15:55;21.00;37.50
7234;DHT22;3658;47.992;10.158;2023-04-15T09:18:30;21.00;37.40
7234;DHT22;3658;47.992;10.158;2023-04-15T09:21:04;20.90;37.30
7234;DHT22;3658;47.992;10.158;2023-04-15T09:23:35;21.00;37.30
7234;DHT22;3658;47.992;10.158;2023-04-15T09:26:02;21.00;37.30
7234;DHT22;3658;47.992;10.158;2023-04-15T09:28:29;21.00;37.30
7234;DHT22;3658;47.992;10.158;2023-04-15T09:30:57;21.00;37.20
7234;DHT22;3658;47.992;10.158;2023-04-15T09:33:25;21.00;37.30
7234;DHT22;3658;47.992;10.158;2023-04-15T09:35:57;21.00;37.30
7234;DHT22;3658;47.992;10.158;2023-04-15T09:38:24;21.00;37.20
7234;DHT22;3658;47.992;10.158;2023-04-15T09:40:53;21.00;37.20
7234;DHT22;3658;47.992;10.158;2023-04-15T09:43:20;21.00;37.20
7234;DHT22;3658;47.992;10.158;2023-04-15T09:45:49;21.00;37.20
7234;DHT22;3658;47.992;10.158;2023-04-15T09:48:17;21.00;37.20
7234;DHT22;3658;47.992;10.158;2023-04-15T09:50:46;21.00;37.20
7234;DHT22;3658;47.992;10.158;2023-04-15T09:53:18;21.00;37.20
7234;DHT22;3658;47.992;10.158;2023-04-15T09:55:48;21.00;37.20
7234;DHT22;3658;47.992;10.158;2023-04-15T09:58:21;21.00;37.10
7234;DHT22;3658;47.992;10.158;2023-04-15T10:00:49;21.00;37.10
7234;DHT22;3658;47.992;10.158;2023-04-15T10:03:19;21.00;37.20
7234;DHT22;3658;47.992;10.158;2023-04-15T10:05:48;21.00;37.10
7234;DHT22;3658;47.992;10.158;2023-04-15T10:08:17;21.00;37.10
7234;DHT22;3658;47.992;10.158;2023-04-15T10:10:45;21.10;37.20
7234;DHT22;3658;47.992;10.158;2023-04-15T10:13:13;21.00;37.00
7234;DHT22;3658;47.992;10.158;2023-04-15T10:15:44;21.10;37.20
7234;DHT22;3658;47.992;10.158;2023-04-15T10:18:14;21.10;37.10
7234;DHT22;3658;47.992;10.158;2023-04-15T10:20:42;21.10;37.10
7234;DHT22;3658;47.992;10.158;2023-04-15T10:23:10;21.10;37.10
7234;DHT22;3658;47.992;10.158;2023-04-15T10:25:38;21.10;37.10
7234;DHT22;3658;47.992;10.158;2023-04-15T10:28:06;21.10;37.10
7234;DHT22;3658;47.992;10.158;2023-04-15T10:30:34;21.10;37.00
7234;DHT22;3658;47.992;10.158;2023-04-15T10:33:04;21.10;37.10
7234;DHT22;3658;47.992;10.158;2023-04-15T10:35:32;21.10;37.70
7234;DHT22;3658;47.992;10.158;2023-04-15T10:37:59;21.10;37.00
7234;DHT22;3658;47.992;10.158;2023-04-15T10:40:28;21.10;37.00
7234;DHT22;3658;47.992;10.158;2023-04-15T10:42:57;21.10;37.00
7234;DHT22;3658;47.992;10.158;2023-04-15T10:45:26;21.10;37.00
7234;DHT22;3658;47.992;10.158;2023-04-15T10:47:56;21.10;36.90
7234;DHT22;3658;47.992;10.158;2023-04-15T10:50:27;21.10;37.00
7234;DHT22;3658;47.992;10.158;2023-04-15T10:52:55;21.10;37.00
7234;DHT22;3658;47.992;10.158;2023-04-15T10:55:24;21.10;36.90
7234;DHT22;3658;47.992;10.158;2023-04-15T10:57:52;21.10;36.90
7234;DHT22;3658;47.992;10.158;2023-04-15T11:00:23;21.10;36.90
7234;DHT22;3658;47.992;10.158;2023-04-15T11:02:53;21.10;36.90
7234;DHT22;3658;47.992;10.158;2023-04-15T11:05:21;21.10;36.90
7234;DHT22;3658;47.992;10.158;2023-04-15T11:07:52;21.10;36.80
7234;DHT22;3658;47.992;10.158;2023-04-15T11:10:50;21.10;36.90
7234;DHT22;3658;47.992;10.158;2023-04-15T11:13:27;21.10;36.80
7234;DHT22;3658;47.992;10.158;2023-04-15T11:16:00;21.10;36.80
7234;DHT22;3658;47.992;10.158;2023-04-15T11:18:32;21.10;36.80
7234;DHT22;3658;47.992;10.158;2023-04-15T11:21:01;21.10;36.80
7234;DHT22;3658;47.992;10.158;2023-04-15T11:23:32;21.10;36.70
7234;DHT22;3658;47.992;10.158;2023-04-15T11:26:00;21.10;36.70
7234;DHT22;3658;47.992;10.158;2023-04-15T11:28:30;21.10;36.80
7234;DHT22;3658;47.992;10.158;2023-04-15T11:31:02;21.10;36.70
7234;DHT22;3658;47.992;10.158;2023-04-15T11:33:31;21.10;36.70
7234;DHT22;3658;47.992;10.158;2023-04-15T11:35:58;21.10;36.70
7234;DHT22;3658;47.992;10.158;2023-04-15T11:38:25;21.10;36.70
7234;DHT22;3658;47.992;10.158;2023-04-15T11:40:53;21.10;36.70
7234;DHT22;3658;47.992;10.158;2023-04-15T11:43:22;21.10;36.70
7234;DHT22;3658;47.992;10.158;2023-04-15T11:45:51;21.10;36.70
7234;DHT22;3658;47.992;10.158;2023-04-15T11:48:20;21.10;36.70
7234;DHT22;3658;47.992;10.158;2023-04-15T11:50:52;21.10;36.70
7234;DHT22;3658;47.992;10.158;2023-04-15T11:53:20;21.10;36.70
7234;DHT22;3658;47.992;10.158;2023-04-15T11:55:48;21.10;37.40
7234;DHT22;3658;47.992;10.158;2023-04-15T11:58:19;21.10;36.70
7234;DHT22;3658;47.992;10.158;2023-04-15T12:00:47;21.10;36.70
7234;DHT22;3658;47.992;10.158;2023-04-15T12:03:20;21.10;36.70
7234;DHT22;3658;47.992;10.158;2023-04-15T12:06:11;21.10;36.70
7234;DHT22;3658;47.992;10.158;2023-04-15T12:08:57;21.10;36.70
7234;DHT22;3658;47.992;10.158;2023-04-15T12:11:48;21.10;36.70
7234;DHT22;3658;47.992;10.158;2023-04-15T12:14:20;21.10;36.70
7234;DHT22;3658;47.992;10.158;2023-04-15T12:16:49;21.10;36.70
7234;DHT22;3658;47.992;10.158;2023-04-15T12:19:18;21.10;36.70
7234;DHT22;3658;47.992;10.158;2023-04-15T12:21:48;21.10;36.70
7234;DHT22;3658;47.992;10.158;2023-04-15T12:24:19;21.10;36.70
7234;DHT22;3658;47.992;10.158;2023-04-15T12:26:49;21.10;36.70
7234;DHT22;3658;47.992;10.158;2023-04-15T12:29:19;21.10;36.70
7234;DHT22;3658;47.992;10.158;2023-04-15T12:31:48;21.10;36.60
7234;DHT22;3658;47.992;10.158;2023-04-15T12:34:17;21.10;36.70
7234;DHT22;3658;47.992;10.158;2023-04-15T12:36:44;21.10;36.60
7234;DHT22;3658;47.992;10.158;2023-04-15T12:39:12;21.10;36.60
7234;DHT22;3658;47.992;10.158;2023-04-15T12:41:38;21.10;36.70
7234;DHT22;3658;47.992;10.158;2023-04-15T12:44:06;21.10;36.60
7234;DHT22;3658;47.992;10.158;2023-04-15T12:46:35;21.10;36.60
7234;DHT22;3658;47.992;10.158;2023-04-15T12:49:02;21.10;36.60
7234;DHT22;3658;47.992;10.158;2023-04-15T12:51:29;21.10;36.60
7234;DHT22;3658;47.992;10.158;2023-04-15T12:53:57;21.10;36.50
7234;DHT22;3658;47.992;10.158;2023-04-15T12:56:24;21.10;36.50
7234;DHT22;3658;47.992;10.158;2023-04-15T12:58:51;21.10;36.60
7234;DHT22;3658;47.992;10.158;2023-04-15T13:01:18;21.10;36.50
7234;DHT22;3658;47.992;10.158;2023-04-15T13:03:46;21.10;36.50
7234;DHT22;3658;47.992;10.158;2023-04-15T13:06:14;21.00;36.40
7234;DHT22;3658;47.992;10.158;2023-04-15T13:08:42;21.10;36.50
7234;DHT22;3658;47.992;10.158;2023-04-15T13:11:09;21.10;36.40
7234;DHT22;3658;47.992;10.158;2023-04-15T13:13:36;21.10;36.40
7234;DHT22;3658;47.992;10.158;2023-04-15T13:16:03;21.10;36.40
7234;DHT22;3658;47.992;10.158;2023-04-15T13:18:31;21.10;36.40
7234;DHT22;3658;47.992;10.158;2023-04-15T13:21:00;21.10;36.40
7234;DHT22;3658;47.992;10.158;2023-04-15T13:23:27;21.10;36.40
7234;DHT22;3658;47.992;10.158;2023-04-15T13:25:54;21.10;36.40
7234;DHT22;3658;47.992;10.158;2023-04-15T13:28:21;21.10;36.40
7234;DHT22;3658;47.992;10.158;2023-04-15T13:30:48;21.10;36.40
7234;DHT22;3658;47.992;10.158;2023-04-15T13:33:16;21.10;36.40
7234;DHT22;3658;47.992;10.158;2023-04-15T13:35:43;21.10;36.40
7234;DHT22;3658;47.992;10.158;2023-04-15T13:38:11;21.10;36.40
7234;DHT22;3658;47.992;10.158;2023-04-15T13:40:38;21.10;36.40
7234;DHT22;3658;47.992;10.158;2023-04-15T13:43:05;21.10;36.40
7234;DHT22;3658;47.992;10.158;2023-04-15T13:45:32;21.10;36.30
7234;DHT22;3658;47.992;10.158;2023-04-15T13:47:59;21.10;36.40
7234;DHT22;3658;47.992;10.158;2023-04-15T13:50:27;21.10;36.40
7234;DHT22;3658;47.992;10.158;2023-04-15T13:52:54;21.10;36.40
7234;DHT22;3658;47.992;10.158;2023-04-15T13:55:22;21.10;36.40
7234;DHT22;3658;47.992;10.158;2023-04-15T13:57:49;21.10;36.40
7234;DHT22;3658;47.992;10.158;2023-04-15T14:00:16;21.10;36.40
7234;DHT22;3658;47.992;10.158;2023-04-15T14:02:43;21.10;36.40
7234;DHT22;3658;47.992;10.158;2023-04-15T14:05:10;21.10;36.30
7234;DHT22;3658;47.992;10.158;2023-04-15T14:07:37;21.10;36.40
7234;DHT22;3658;47.992;10.158;2023-04-15T14:10:06;21.10;36.40
7234;DHT22;3658;47.992;10.158;2023-04-15T14:12:34;21.10;36.40
7234;DHT22;3658;47.992;10.158;2023-04-15T14:15:01;21.10;36.30
7234;DHT22;3658;47.992;10.158;2023-04-15T14:17:28;21.10;36.40
7234;DHT22;3658;47.992;10.158;2023-04-15T14:19:55;21.10;36.40
7234;DHT22;3658;47.992;10.158;2023-04-15T14:22:22;21.00;36.30
7234;DHT22;3658;47.992;10.158;2023-04-15T14:24:49;21.00;36.30
7234;DHT22;3658;47.992;10.158;2023-04-15T14:27:18;21.00;36.30
7234;DHT22;3658;47.992;10.158;2023-04-15T14:29:46;21.00;36.30
7234;DHT22;3658;47.992;10.158;2023-04-15T14:32:13;21.00;36.40
7234;DHT22;3658;47.992;10.158;2023-04-15T14:34:40;21.00;36.30
7234;DHT22;3658;47.992;10.158;2023-04-15T14:37:07;21.00;36.40
7234;DHT22;3658;47.992;10.158;2023-04-15T14:39:34;21.00;36.30
7234;DHT22;3658;47.992;10.158;2023-04-15T14:42:01;21.00;36.30
7234;DHT22;3658;47.992;10.158;2023-04-15T14:44:28;21.00;36.30
7234;DHT22;3658;47.992;10.158;2023-04-15T14:46:56;21.00;36.40
7234;DHT22;3658;47.992;10.158;2023-04-15T14:49:23;21.00;36.40
7234;DHT22;3658;47.992;10.158;2023-04-15T14:51:50;21.00;36.40
7234;DHT22;3658;47.992;10.158;2023-04-15T14:54:17;21.00;36.30
7234;DHT22;3658;47.992;10.158;2023-04-15T14:56:44;21.00;36.30
7234;DHT22;3658;47.992;10.158;2023-04-15T14:59:11;21.00;36.30
7234;DHT22;3658;47.992;10.158;2023-04-15T15:01:38;21.00;36.30
7234;DHT22;3658;47.992;10.158;2023-04-15T15:04:08;21.00;36.30
7234;DHT22;3658;47.992;10.158;2023-04-15T15:06:35;21.00;36.40
7234;DHT22;3658;47.992;10.158;2023-04-15T15:09:02;21.00;36.40
7234;DHT22;3658;47.992;10.158;2023-04-15T15:11:29;21.00;36.40
7234;DHT22;3658;47.992;10.158;2023-04-15T15:13:56;21.00;36.30
7234;DHT22;3658;47.992;10.158;2023-04-15T15:16:23;21.00;36.30
7234;DHT22;3658;47.992;10.158;2023-04-15T15:18:50;21.00;36.30
7234;DHT22;3658;47.992;10.158;2023-04-15T15:21:18;21.00;36.30
7234;DHT22;3658;47.992;10.158;2023-04-15T15:23:45;21.00;36.40
7234;DHT22;3658;47.992;10.158;2023-04-15T15:26:13;21.00;36.30
7234;DHT22;3658;47.992;10.158;2023-04-15T15:28:40;21.00;36.30
7234;DHT22;3658;47.992;10.158;2023-04-15T15:31:07;21.00;36.30
7234;DHT22;3658;47.992;10.158;2023-04-15T15:33:34;21.00;36.30
7234;DHT22;3658;47.992;10.158;2023-04-15T15:36:02;21.00;36.40
7234;DHT22;3658;47.992;10.158;2023-04-15T15:38:31;21.00;36.30
7234;DHT22;3658;47.992;10.158;2023-04-15T15:40:57;21.00;36.40
7234;DHT22;3658;47.992;10.158;2023-04-15T15:43:24;21.00;36.40
7234;DHT22;3658;47.992;10.158;2023-04-15T15:45:51;21.00;36.40
7234;DHT22;3658;47.992;10.158;2023-04-15T15:48:20;20.90;36.30
7234;DHT22;3658;47.992;10.158;2023-04-15T15:50:47;21.00;36.40